Time;durP1;ratioP1;P1;durP2;ratioP2;P2;SDS_P1;SDS_P2;PMS_P1;PMS_P2;Temp;Humidity;BMP_temperature;BMP_pressure;BME280_temperature;BME280_humidity;BME280_pressure;Samples;Min_cycle;Max_cycle;Signal;HPM_P1;HPM_P2
2023/04/18 00:00:24;;;;;;;21.13;19.40;;;;;;;-142.25;100.00;58004.16;4911438;29;20056;-65
2023/04/18 00:02:52;;;;;;;24.73;22.43;;;;;;;-142.25;100.00;58004.16;4911198;29;20051;-65
2023/04/18 00:05:19;;;;;;;19.37;17.90;;;;;;;-142.25;100.00;58004.16;4910499;29;20050;-64
2023/04/18 00:07:45;;;;;;;18.50;16.87;;;;;;;-142.25;100.00;58004.16;4913025;29;20051;-65
2023/04/18 00:10:11;;;;;;;18.03;16.50;;;;;;;-142.25;100.00;58004.16;4912531;29;20431;-64
2023/04/18 00:12:37;;;;;;;19.57;18.07;;;;;;;-142.25;100.00;58004.16;4912136;29;20048;-65
2023/04/18 00:15:06;;;;;;;20.90;19.33;;;;;;;-142.25;100.00;58004.16;4909294;29;20146;-64
2023/04/18 00:17:31;;;;;;;26.63;24.40;;;;;;;-142.25;100.00;58004.16;4909447;29;20054;-64
2023/04/18 00:19:57;;;;;;;23.43;21.27;;;;;;;-142.25;100.00;58004.16;4910147;29;20675;-65
2023/04/18 00:22:23;;;;;;;18.57;16.97;;;;;;;-142.25;100.00;58004.16;4912126;29;20051;-63
2023/04/18 00:24:52;;;;;;;21.27;19.43;;;;;;;-142.25;100.00;58004.16;4915010;29;20369;-64
2023/04/18 00:27:19;;;;;;;25.27;23.00;;;;;;;-142.25;100.00;58004.16;4910492;29;20075;-64
2023/04/18 00:29:45;;;;;;;23.03;20.73;;;;;;;-142.25;100.00;58004.16;4911338;29;20287;-65
2023/04/18 00:32:13;;;;;;;23.27;21.17;;;;;;;-142.25;100.00;58004.16;4910037;29;20712;-64
2023/04/18 00:34:39;;;;;;;21.90;20.07;;;;;;;-142.25;100.00;58004.16;4910588;29;20303;-65
2023/04/18 00:37:06;;;;;;;17.63;16.17;;;;;;;-142.25;100.00;58004.16;4919053;29;20450;-64
2023/04/18 00:39:36;;;;;;;19.13;17.33;;;;;;;-142.25;100.00;58004.16;4913125;29;20138;-64
2023/04/18 00:42:02;;;;;;;19.40;17.93;;;;;;;-142.25;100.00;58004.16;4910941;29;20430;-66
2023/04/18 00:44:29;;;;;;;21.47;19.53;;;;;;;-142.25;100.00;58004.16;4911926;29;20621;-64
2023/04/18 00:46:56;;;;;;;18.57;17.10;;;;;;;-142.25;100.00;58004.16;4908862;29;20307;-64
2023/04/18 00:49:22;;;;;;;21.20;19.40;;;;;;;-142.25;100.00;58004.16;4910204;29;20398;-64
2023/04/18 00:51:49;;;;;;;22.07;19.83;;;;;;;-142.25;100.00;58004.16;4910996;29;20051;-65
2023/04/18 00:54:17;;;;;;;21.60;19.63;;;;;;;-142.25;100.00;58004.16;4911471;29;20374;-64
2023/04/18 00:56:45;;;;;;;24.23;22.13;;;;;;;-142.25;100.00;58004.16;4911059;29;20291;-63
2023/04/18 00:59:12;;;;;;;18.37;16.83;;;;;;;-142.25;100.00;58004.16;4911478;29;20290;-63
2023/04/18 01:01:42;;;;;;;23.00;21.27;;;;;;;-142.25;100.00;58004.16;4910528;29;20395;-63
2023/04/18 01:04:08;;;;;;;20.60;18.93;;;;;;;-142.25;100.00;58004.16;4911199;28;20835;-64
2023/04/18 01:06:35;;;;;;;23.63;21.27;;;;;;;-142.25;100.00;58004.16;4911677;29;20677;-65
2023/04/18 01:09:01;;;;;;;23.10;21.00;;;;;;;-142.25;100.00;58004.16;4925034;29;20308;-63
2023/04/18 01:11:27;;;;;;;20.83;18.80;;;;;;;-142.25;100.00;58004.16;4911674;29;20616;-64
2023/04/18 01:14:06;;;;;;;20.83;18.90;;;;;;;-142.25;100.00;58004.16;4917490;29;20315;-63
2023/04/18 01:16:35;;;;;;;20.47;18.67;;;;;;;-142.25;100.00;58004.16;4910890;29;20040;-63
2023/04/18 01:19:03;;;;;;;21.80;17.30;;;;;;;-142.25;100.00;58004.16;4910551;29;20489;-63
2023/04/18 01:21:32;;;;;;;18.27;16.63;;;;;;;-142.25;100.00;58004.16;4926007;29;20311;-64
2023/04/18 01:24:05;;;;;;;19.50;17.67;;;;;;;-142.25;100.00;58004.16;4909611;29;20044;-64
2023/04/18 01:26:31;;;;;;;17.93;16.43;;;;;;;-142.25;100.00;58004.16;4911503;29;20366;-63
2023/04/18 01:28:56;;;;;;;20.80;19.00;;;;;;;-142.25;100.00;58004.16;4911633;29;20703;-63
2023/04/18 01:31:22;;;;;;;17.90;16.47;;;;;;;-142.25;100.00;58004.16;4911781;29;20423;-64
2023/04/18 01:33:48;;;;;;;17.13;15.77;;;;;;;-142.25;100.00;58004.16;4908436;29;20044;-65
2023/04/18 01:36:14;;;;;;;23.33;21.20;;;;;;;-142.25;100.00;58004.16;4928078;29;21020;-64
2023/04/18 01:38:40;;;;;;;21.77;19.83;;;;;;;-142.25;100.00;58004.16;4914463;29;20298;-67
2023/04/18 01:41:06;;;;;;;18.60;17.03;;;;;;;-142.25;100.00;58004.16;4929008;29;20043;-63
2023/04/18 01:43:31;;;;;;;21.03;19.53;;;;;;;-142.25;100.00;58004.16;4928917;29;20058;-62
2023/04/18 01:45:57;;;;;;;21.13;19.43;;;;;;;-142.25;100.00;58004.16;4915947;28;20147;-63
2023/04/18 01:48:22;;;;;;;18.20;16.80;;;;;;;-142.25;100.00;58004.16;4914301;29;20099;-63
2023/04/18 01:50:48;;;;;;;19.60;17.77;;;;;;;-142.25;100.00;58004.16;4914165;29;20567;-63
2023/04/18 01:53:14;;;;;;;18.33;16.57;;;;;;;-142.25;100.00;58004.16;4913458;29;20624;-62
2023/04/18 01:55:42;;;;;;;18.07;16.77;;;;;;;-142.25;100.00;58004.16;4912890;29;20095;-67
2023/04/18 01:58:08;;;;;;;22.17;20.13;;;;;;;-142.25;100.00;58004.16;4913494;29;20312;-63
2023/04/18 02:00:35;;;;;;;22.67;20.60;;;;;;;-142.25;100.00;58004.16;4927031;28;20040;-63
2023/04/18 02:03:01;;;;;;;18.47;16.93;;;;;;;-142.25;100.00;58004.16;4902023;29;20036;-65
2023/04/18 02:05:26;;;;;;;18.90;17.50;;;;;;;-142.25;100.00;58004.16;4927657;29;20056;-63
2023/04/18 02:07:52;;;;;;;16.50;15.27;;;;;;;-142.25;100.00;58004.16;4921308;29;20490;-63
2023/04/18 02:10:18;;;;;;;19.33;17.57;;;;;;;-142.25;100.00;58004.16;4913222;29;20502;-63
2023/04/18 02:12:44;;;;;;;18.53;17.20;;;;;;;-142.25;100.00;58004.16;4912423;29;20051;-63
2023/04/18 02:15:10;;;;;;;22.13;20.47;;;;;;;-142.25;100.00;58004.16;4927353;28;20566;-63
2023/04/18 02:17:36;;;;;;;18.77;17.30;;;;;;;-142.25;100.00;58004.16;4914711;29;20052;-63
2023/04/18 02:20:02;;;;;;;22.73;20.67;;;;;;;-142.25;100.00;58004.16;4928809;29;20671;-63
2023/04/18 02:22:28;;;;;;;21.53;20.00;;;;;;;-142.25;100.00;58004.16;4913397;28;20047;-63
2023/04/18 02:24:53;;;;;;;23.30;21.33;;;;;;;-142.25;100.00;58004.16;4927822;29;20563;-63
2023/04/18 02:27:19;;;;;;;18.03;16.60;;;;;;;-142.25;100.00;58004.16;4913992;29;20073;-63
2023/04/18 02:29:45;;;;;;;21.47;19.20;;;;;;;-142.25;100.00;58004.16;4913263;29;20056;-63
2023/04/18 02:32:10;;;;;;;21.53;19.73;;;;;;;-142.25;100.00;58004.16;4912871;29;20106;-63
2023/04/18 02:34:37;;;;;;;18.97;17.60;;;;;;;-142.25;100.00;58004.16;4914591;29;20048;-62
2023/04/18 02:37:03;;;;;;;16.40;15.10;;;;;;;-142.25;100.00;58004.16;4912912;29;20104;-62
2023/04/18 02:39:30;;;;;;;22.90;20.97;;;;;;;-142.25;100.00;58004.16;4913904;29;20054;-62
2023/04/18 02:41:57;;;;;;;20.80;19.00;;;;;;;-142.25;100.00;58004.16;4926903;29;20295;-63
2023/04/18 02:44:23;;;;;;;19.47;17.93;;;;;;;-142.25;100.00;58004.16;4929588;28;20079;-63
2023/04/18 02:46:49;;;;;;;18.50;17.03;;;;;;;-142.25;100.00;58004.16;4911638;29;20383;-63
2023/04/18 02:49:15;;;;;;;17.70;16.37;;;;;;;-142.25;100.00;58004.16;4912265;29;20048;-63
2023/04/18 02:51:40;;;;;;;18.67;16.80;;;;;;;-142.25;100.00;58004.16;4911572;29;20099;-63
2023/04/18 02:54:06;;;;;;;18.87;17.50;;;;;;;-142.25;100.00;58004.16;4910933;29;20048;-64
2023/04/18 02:56:47;;;;;;;20.70;18.90;;;;;;;-142.25;100.00;58004.16;4921068;29;20134;-63
2023/04/18 02:59:23;;;;;;;22.10;20.27;;;;;;;-142.25;100.00;58004.16;4911119;29;20362;-63
2023/04/18 03:02:14;;;;;;;20.23;18.53;;;;;;;-142.25;100.00;58004.16;4888164;29;20715;-63
2023/04/18 03:04:47;;;;;;;18.43;17.10;;;;;;;-142.25;100.00;58004.16;4886446;29;20404;-64
2023/04/18 03:07:14;;;;;;;18.47;16.90;;;;;;;-142.25;100.00;58004.16;4902587;29;20326;-64
2023/04/18 03:09:40;;;;;;;19.00;17.27;;;;;;;-142.25;100.00;58004.16;4884605;29;20434;-64
2023/04/18 03:12:15;;;;;;;19.73;18.00;;;;;;;-142.25;100.00;58004.16;4885587;29;20293;-64
2023/04/18 03:14:43;;;;;;;23.67;21.70;;;;;;;-142.25;100.00;58004.16;4902900;29;20054;-64
2023/04/18 03:17:10;;;;;;;18.77;17.30;;;;;;;-142.25;100.00;58004.16;4901229;29;20398;-63
2023/04/18 03:19:39;;;;;;;18.93;17.37;;;;;;;-142.25;100.00;58004.16;4885597;29;20355;-63
2023/04/18 03:22:08;;;;;;;17.47;16.10;;;;;;;-142.25;100.00;58004.16;4902106;29;20384;-64
2023/04/18 03:24:39;;;;;;;17.00;15.47;;;;;;;-142.25;100.00;58004.16;4885844;29;20316;-63
2023/04/18 03:27:06;;;;;;;18.43;16.97;;;;;;;-142.25;100.00;58004.16;4904285;29;20394;-62
2023/04/18 03:29:33;;;;;;;18.37;16.90;;;;;;;-142.25;100.00;58004.16;4882404;29;20638;-62
2023/04/18 03:32:01;;;;;;;19.60;18.07;;;;;;;-142.25;100.00;58004.16;4884420;29;20304;-64
2023/04/18 03:34:27;;;;;;;18.20;16.63;;;;;;;-142.25;100.00;58004.16;4884155;29;20115;-63
2023/04/18 03:36:53;;;;;;;20.10;18.63;;;;;;;-142.25;100.00;58004.16;4887289;29;20675;-63
2023/04/18 03:39:20;;;;;;;19.07;17.50;;;;;;;-142.25;100.00;58004.16;4914891;28;20303;-63
2023/04/18 03:41:45;;;;;;;20.00;18.47;;;;;;;-142.25;100.00;58004.16;4911391;29;20280;-63
2023/04/18 03:44:12;;;;;;;17.17;15.77;;;;;;;-142.25;100.00;58004.16;4928865;29;20088;-64
2023/04/18 03:46:40;;;;;;;20.13;18.50;;;;;;;-142.25;100.00;58004.16;4911230;29;20303;-64
2023/04/18 03:49:07;;;;;;;16.57;15.20;;;;;;;-142.25;100.00;58004.16;4920953;29;20859;-63
2023/04/18 03:51:40;;;;;;;17.03;15.60;;;;;;;-142.25;100.00;58004.16;4912581;29;20567;-63
2023/04/18 03:54:06;;;;;;;17.93;16.60;;;;;;;-142.25;100.00;58004.16;4912547;29;20044;-63
2023/04/18 03:56:31;;;;;;;33.70;30.07;;;;;;;-142.25;100.00;58004.16;4912912;29;20284;-63
2023/04/18 03:58:58;;;;;;;15.83;14.57;;;;;;;-142.25;100.00;58004.16;4910821;29;20446;-62
2023/04/18 04:01:24;;;;;;;18.73;17.17;;;;;;;-142.25;100.00;58004.16;4926821;29;20048;-63
2023/04/18 04:03:51;;;;;;;18.73;17.37;;;;;;;-142.25;100.00;58004.16;4926421;29;20044;-63
2023/04/18 04:06:17;;;;;;;19.80;17.97;;;;;;;-142.25;100.00;58004.16;4928350;29;20308;-63
2023/04/18 04:08:43;;;;;;;16.93;15.67;;;;;;;-142.25;100.00;58004.16;4910967;29;20299;-64
2023/04/18 04:11:09;;;;;;;18.97;17.43;;;;;;;-142.25;100.00;58004.16;4926671;29;20684;-62
2023/04/18 04:13:35;;;;;;;17.03;15.67;;;;;;;-142.25;100.00;58004.16;4901767;29;20408;-62
2023/04/18 04:16:01;;;;;;;17.00;15.53;;;;;;;-142.25;100.00;58004.16;4911823;29;20588;-63
2023/04/18 04:18:30;;;;;;;17.37;16.10;;;;;;;-142.25;100.00;58004.16;4910707;29;20036;-66
2023/04/18 04:20:58;;;;;;;17.27;15.93;;;;;;;-142.25;100.00;58004.16;4926620;29;20044;-63
2023/04/18 04:23:35;;;;;;;14.07;12.87;;;;;;;-142.25;100.00;58004.16;4910530;29;20318;-63
2023/04/18 04:26:03;;;;;;;17.07;15.73;;;;;;;-142.25;100.00;58004.16;4909804;29;20354;-63
2023/04/18 04:28:46;;;;;;;22.65;20.98;;;;;;;-142.25;100.00;58004.16;4900600;29;20039;-64
2023/04/18 04:31:15;;;;;;;20.07;18.60;;;;;;;-142.25;100.00;58004.16;4919223;29;20052;-63
2023/04/18 04:33:42;;;;;;;20.93;19.30;;;;;;;-142.25;100.00;58004.16;4925476;29;20827;-64
2023/04/18 04:36:15;;;;;;;22.67;21.00;;;;;;;-142.25;100.00;58004.16;4918917;29;20858;-65
2023/04/18 04:38:43;;;;;;;22.30;20.73;;;;;;;-142.25;100.00;58004.16;4916787;29;20090;-64
2023/04/18 04:41:10;;;;;;;24.63;22.57;;;;;;;-142.25;100.00;58004.16;4913603;29;20295;-65
2023/04/18 04:43:36;;;;;;;23.03;21.40;;;;;;;-142.25;100.00;58004.16;4910177;29;20302;-64
2023/04/18 04:46:03;;;;;;;22.93;21.13;;;;;;;-142.25;100.00;58004.16;4922243;28;20340;-65
2023/04/18 04:48:29;;;;;;;26.93;24.67;;;;;;;-142.25;100.00;58004.16;4910177;29;20828;-62
2023/04/18 04:50:56;;;;;;;24.23;22.13;;;;;;;-142.25;100.00;58004.16;4910701;29;20294;-64
2023/04/18 04:53:23;;;;;;;23.20;21.47;;;;;;;-142.25;100.00;58004.16;4908934;29;20083;-61
2023/04/18 04:55:51;;;;;;;21.17;19.53;;;;;;;-142.25;100.00;58004.16;4913229;29;20306;-63
2023/04/18 04:58:18;;;;;;;22.07;20.27;;;;;;;-142.25;100.00;58004.16;4922788;29;20434;-62
2023/04/18 05:01:01;;;;;;;21.73;20.27;;;;;;;-142.25;100.00;58004.16;4913580;29;20304;-70
2023/04/18 05:03:26;;;;;;;16.33;15.17;;;;;;;-142.25;100.00;58004.16;4922347;29;20299;-66
2023/04/18 05:05:52;;;;;;;19.63;18.23;;;;;;;-142.25;100.00;58004.16;4904549;29;20059;-69
2023/04/18 05:08:18;;;;;;;20.83;19.37;;;;;;;-142.25;100.00;58004.16;4926293;29;20645;-67
2023/04/18 05:10:44;;;;;;;19.67;18.20;;;;;;;-142.25;100.00;58004.16;4913692;29;20055;-63
2023/04/18 05:13:10;;;;;;;19.03;17.70;;;;;;;-142.25;100.00;58004.16;4917020;29;20119;-67
2023/04/18 05:15:36;;;;;;;22.80;21.13;;;;;;;-142.25;100.00;58004.16;4915206;29;20295;-63
2023/04/18 05:18:02;;;;;;;24.50;22.63;;;;;;;-142.25;100.00;58004.16;4912126;29;20291;-62
2023/04/18 05:20:28;;;;;;;21.27;19.60;;;;;;;-142.25;100.00;58004.16;4913870;29;20052;-62
2023/04/18 05:22:54;;;;;;;19.20;17.70;;;;;;;-142.25;100.00;58004.16;4914753;29;20315;-62
2023/04/18 05:25:20;;;;;;;21.30;19.77;;;;;;;-142.25;100.00;58004.16;4912494;29;20052;-62
2023/04/18 05:27:45;;;;;;;18.83;17.13;;;;;;;-142.25;100.00;58004.16;4913984;29;20090;-62
2023/04/18 05:30:11;;;;;;;17.43;16.07;;;;;;;-142.25;100.00;58004.16;4913657;29;20052;-62
2023/04/18 05:32:40;;;;;;;17.93;16.57;;;;;;;-142.25;100.00;58004.16;4915926;29;20087;-63
2023/04/18 05:35:06;;;;;;;20.67;18.90;;;;;;;-142.25;100.00;58004.16;4912180;29;20056;-62
2023/04/18 05:37:32;;;;;;;21.37;19.70;;;;;;;-142.25;100.00;58004.16;4920688;28;20379;-62
2023/04/18 05:39:58;;;;;;;18.07;16.67;;;;;;;-142.25;100.00;58004.16;4912261;29;20295;-62
2023/04/18 05:42:24;;;;;;;18.83;17.37;;;;;;;-142.25;100.00;58004.16;4914420;29;20342;-69
2023/04/18 05:44:50;;;;;;;19.80;18.37;;;;;;;-142.25;100.00;58004.16;4913607;29;20400;-62
2023/04/18 05:47:16;;;;;;;20.33;18.77;;;;;;;-142.25;100.00;58004.16;4913717;29;20295;-62
2023/04/18 05:49:42;;;;;;;18.60;17.27;;;;;;;-142.25;100.00;58004.16;4915051;29;20058;-62
2023/04/18 05:52:08;;;;;;;19.70;18.13;;;;;;;-142.25;100.00;58004.16;4912770;29;20296;-62
2023/04/18 05:54:33;;;;;;;17.10;15.57;;;;;;;-142.25;100.00;58004.16;4913688;29;20051;-62
2023/04/18 05:56:59;;;;;;;19.33;17.97;;;;;;;-142.25;100.00;58004.16;4913350;29;20071;-62
2023/04/18 05:59:25;;;;;;;17.03;15.73;;;;;;;-142.25;100.00;58004.16;4914545;29;20083;-62
2023/04/18 06:01:51;;;;;;;17.73;16.47;;;;;;;-142.25;100.00;58004.16;4912844;29;20044;-62
2023/04/18 06:04:18;;;;;;;19.13;17.63;;;;;;;-142.25;100.00;58004.16;4911908;29;20304;-64
2023/04/18 06:06:44;;;;;;;18.07;16.73;;;;;;;-142.25;100.00;58004.16;4922800;28;20043;-60
2023/04/18 06:09:10;;;;;;;17.90;16.53;;;;;;;-142.25;100.00;58004.16;4912723;29;20374;-60
2023/04/18 06:11:36;;;;;;;18.93;17.47;;;;;;;-142.25;100.00;58004.16;4914487;29;20660;-59
2023/04/18 06:14:02;;;;;;;17.70;16.43;;;;;;;-142.25;100.00;58004.16;4913686;29;20187;-61
2023/04/18 06:16:27;;;;;;;19.43;17.77;;;;;;;-142.25;100.00;58004.16;4912536;29;20052;-61
2023/04/18 06:18:54;;;;;;;16.83;15.57;;;;;;;-142.25;100.00;58004.16;4913701;29;20647;-61
2023/04/18 06:21:20;;;;;;;17.30;15.90;;;;;;;-142.25;100.00;58004.16;4914800;29;20143;-61
2023/04/18 06:23:46;;;;;;;23.87;22.23;;;;;;;-142.25;100.00;58004.16;4911864;29;20732;-64
2023/04/18 06:26:12;;;;;;;20.70;18.13;;;;;;;-142.25;100.00;58004.16;4914504;29;20292;-63
2023/04/18 06:28:38;;;;;;;18.37;16.97;;;;;;;-142.25;100.00;58004.16;4913693;28;20051;-64
2023/04/18 06:31:03;;;;;;;15.83;14.60;;;;;;;-142.25;100.00;58004.16;4914933;29;20302;-63
2023/04/18 06:33:29;;;;;;;16.03;14.87;;;;;;;-142.25;100.00;58004.16;4913764;29;20542;-63
2023/04/18 06:35:55;;;;;;;20.67;19.07;;;;;;;-142.25;100.00;58004.16;4910937;29;20583;-64
2023/04/18 06:38:21;;;;;;;20.17;18.73;;;;;;;-142.25;100.00;58004.16;4912259;29;20590;-65
2023/04/18 06:40:47;;;;;;;17.87;16.53;;;;;;;-142.25;100.00;58004.16;4913062;29;20659;-65
2023/04/18 06:43:12;;;;;;;17.00;15.73;;;;;;;-142.25;100.00;58004.16;4913120;29;20043;-65
2023/04/18 06:45:38;;;;;;;17.37;16.10;;;;;;;-142.25;100.00;58004.16;4924730;29;20646;-65
2023/04/18 06:48:04;;;;;;;20.20;18.67;;;;;;;-142.25;100.00;58004.16;4926538;28;20143;-63
2023/04/18 06:50:29;;;;;;;20.43;18.97;;;;;;;-142.25;100.00;58004.16;4913389;29;20376;-66
2023/04/18 06:52:55;;;;;;;18.40;17.10;;;;;;;-142.25;100.00;58004.16;4913006;29;20047;-66
2023/04/18 06:55:21;;;;;;;20.40;18.97;;;;;;;-142.25;100.00;58004.16;4913135;29;20223;-65
2023/04/18 06:57:46;;;;;;;18.77;17.37;;;;;;;-142.25;100.00;58004.16;4912872;29;20170;-64
2023/04/18 07:00:13;;;;;;;17.43;16.07;;;;;;;-142.25;100.00;58004.16;4912703;29;20509;-65
2023/04/18 07:02:39;;;;;;;17.27;15.93;;;;;;;-142.25;100.00;58004.16;4913137;29;20052;-63
2023/04/18 07:05:05;;;;;;;19.17;17.83;;;;;;;-142.25;100.00;58004.16;4911318;29;20348;-63
2023/04/18 07:07:32;;;;;;;17.70;16.33;;;;;;;-142.25;100.00;58004.16;4911763;29;20279;-61
2023/04/18 07:09:58;;;;;;;16.77;15.57;;;;;;;-142.25;100.00;58004.16;4911644;29;20353;-67
2023/04/18 07:12:24;;;;;;;19.27;17.87;;;;;;;-142.25;100.00;58004.16;4920882;29;20288;-66
2023/04/18 07:14:50;;;;;;;19.73;18.33;;;;;;;-142.25;100.00;58004.16;4910478;28;20662;-67
2023/04/18 07:17:16;;;;;;;20.03;18.60;;;;;;;-142.25;100.00;58004.16;4913178;29;20047;-67
2023/04/18 07:19:42;;;;;;;113.93;107.10;;;;;;;-142.25;100.00;58004.16;4895466;28;20330;-66
2023/04/18 07:22:08;;;;;;;19.03;17.63;;;;;;;-142.25;100.00;58004.16;4912926;29;21279;-67
2023/04/18 07:24:34;;;;;;;23.57;21.93;;;;;;;-142.25;100.00;58004.16;4914992;29;20051;-68
2023/04/18 07:27:00;;;;;;;19.47;18.13;;;;;;;-142.25;100.00;58004.16;4912606;29;20047;-67
2023/04/18 07:29:26;;;;;;;15.43;14.20;;;;;;;-142.25;100.00;58004.16;4912506;29;20047;-68
2023/04/18 07:31:52;;;;;;;18.83;17.40;;;;;;;-142.25;100.00;58004.16;4913134;29;20363;-67
2023/04/18 07:34:17;;;;;;;18.80;17.40;;;;;;;-142.25;100.00;58004.16;4911223;29;20082;-71
2023/04/18 07:36:43;;;;;;;20.80;19.30;;;;;;;-142.25;100.00;58004.16;4913008;29;20123;-66
2023/04/18 07:39:09;;;;;;;20.43;19.00;;;;;;;-142.25;100.00;58004.16;4911444;29;20059;-67
2023/04/18 07:41:34;;;;;;;17.00;15.73;;;;;;;-142.25;100.00;58004.16;4912705;29;20103;-64
2023/04/18 07:44:01;;;;;;;21.23;19.60;;;;;;;-142.25;100.00;58004.16;4911162;29;20299;-75
2023/04/18 07:46:28;;;;;;;17.73;16.40;;;;;;;-142.25;100.00;58004.16;4912589;29;20448;-70
2023/04/18 07:48:53;;;;;;;15.63;14.40;;;;;;;-142.25;100.00;58004.16;4911378;29;20314;-73
2023/04/18 07:51:19;;;;;;;16.90;15.63;;;;;;;-142.25;100.00;58004.16;4911595;29;20785;-69
2023/04/18 07:53:45;;;;;;;19.03;17.63;;;;;;;-142.25;100.00;58004.16;4912818;28;20269;-69
2023/04/18 07:56:11;;;;;;;15.63;14.40;;;;;;;-142.25;100.00;58004.16;4912143;29;20400;-66
2023/04/18 07:58:37;;;;;;;17.27;15.90;;;;;;;-142.25;100.00;58004.16;4926038;28;20066;-61
2023/04/18 08:01:03;;;;;;;16.43;15.20;;;;;;;-142.25;100.00;58004.16;4911471;29;20404;-60
2023/04/18 08:03:29;;;;;;;18.33;17.07;;;;;;;-142.25;100.00;58004.16;4912504;29;20416;-64
2023/04/18 08:05:54;;;;;;;16.03;14.83;;;;;;;-142.25;100.00;58004.16;4912454;29;20046;-65
2023/04/18 08:08:20;;;;;;;21.50;20.03;;;;;;;-142.25;100.00;58004.16;4910114;29;20054;-69
2023/04/18 08:10:46;;;;;;;17.57;16.27;;;;;;;-142.25;100.00;58004.16;4910759;29;20040;-69
2023/04/18 08:13:12;;;;;;;16.87;15.60;;;;;;;-142.25;100.00;58004.16;4911786;29;20273;-69
2023/04/18 08:15:41;;;;;;;19.23;17.80;;;;;;;-142.25;100.00;58004.16;4911306;29;20051;-68
2023/04/18 08:18:06;;;;;;;17.27;15.90;;;;;;;-142.25;100.00;58004.16;4912200;29;20064;-69
2023/04/18 08:20:34;;;;;;;17.47;16.13;;;;;;;-142.25;100.00;58004.16;4911386;29;20110;-69
2023/04/18 08:22:59;;;;;;;17.23;15.93;;;;;;;-142.25;100.00;58004.16;4912578;29;20191;-66
2023/04/18 08:25:25;;;;;;;17.80;16.53;;;;;;;-142.25;100.00;58004.16;4912193;29;20056;-64
2023/04/18 08:27:50;;;;;;;16.40;15.13;;;;;;;-142.25;100.00;58004.16;4912121;29;20055;-64
2023/04/18 08:30:16;;;;;;;18.77;17.33;;;;;;;-142.25;100.00;58004.16;4925623;29;20392;-66
2023/04/18 08:32:43;;;;;;;18.07;16.77;;;;;;;-142.25;100.00;58004.16;4911528;29;20055;-65
2023/04/18 08:35:08;;;;;;;19.97;18.47;;;;;;;-142.25;100.00;58004.16;4918328;29;20040;-65
2023/04/18 08:37:34;;;;;;;16.83;15.63;;;;;;;-142.25;100.00;58004.16;4910143;29;20474;-66
2023/04/18 08:40:04;;;;;;;19.47;18.00;;;;;;;-142.25;100.00;58004.16;4910059;29;20174;-65
2023/04/18 08:42:30;;;;;;;15.83;14.63;;;;;;;-142.25;100.00;58004.16;4913028;29;20131;-66
2023/04/18 08:44:59;;;;;;;20.47;18.90;;;;;;;-142.25;100.00;58004.16;4910771;29;20055;-66
2023/04/18 08:47:27;;;;;;;17.57;16.33;;;;;;;-142.25;100.00;58004.16;4912710;29;20048;-65
2023/04/18 08:49:54;;;;;;;16.40;15.17;;;;;;;-142.25;100.00;58004.16;4911650;29;20036;-65
2023/04/18 08:52:21;;;;;;;16.60;15.37;;;;;;;-142.25;100.00;58004.16;4911293;29;20067;-65
2023/04/18 08:54:48;;;;;;;16.90;15.67;;;;;;;-142.25;100.00;58004.16;4910090;29;20047;-66
2023/04/18 08:57:15;;;;;;;20.13;18.77;;;;;;;-142.25;100.00;58004.16;4910237;28;20055;-64
2023/04/18 08:59:44;;;;;;;17.03;15.73;;;;;;;-142.25;100.00;58004.16;4909937;29;20063;-64
2023/04/18 09:02:11;;;;;;;16.77;15.33;;;;;;;-142.25;100.00;58004.16;4912670;29;20283;-65
2023/04/18 09:04:37;;;;;;;20.40;18.90;;;;;;;-142.25;100.00;58004.16;4909940;28;20048;-65
2023/04/18 09:07:08;;;;;;;22.10;20.60;;;;;;;-142.25;100.00;58004.16;4911142;29;20392;-66
2023/04/18 09:09:49;;;;;;;18.87;17.50;;;;;;;-142.25;100.00;58004.16;4910508;28;20035;-65
2023/04/18 09:12:21;;;;;;;18.60;17.23;;;;;;;-142.25;100.00;58004.16;4911365;29;20284;-65
2023/04/18 09:14:49;;;;;;;22.63;21.00;;;;;;;-142.25;100.00;58004.16;4919367;29;20036;-64
2023/04/18 09:17:32;;;;;;;18.83;17.43;;;;;;;-142.25;100.00;58004.16;4912300;29;20052;-65
2023/04/18 09:19:59;;;;;;;17.73;16.47;;;;;;;-142.25;100.00;58004.16;4909697;29;20072;-65
2023/04/18 09:22:25;;;;;;;17.43;16.17;;;;;;;-142.25;100.00;58004.16;4910197;29;20060;-65
2023/04/18 09:24:56;;;;;;;19.03;17.73;;;;;;;-142.25;100.00;58004.16;4909260;29;20043;-66
2023/04/18 09:27:23;;;;;;;19.93;18.47;;;;;;;-142.25;100.00;58004.16;4910985;28;20074;-65
2023/04/18 09:29:51;;;;;;;16.90;15.63;;;;;;;-142.25;100.00;58004.16;4926296;29;20048;-64
2023/04/18 09:32:28;;;;;;;17.87;16.60;;;;;;;-142.25;100.00;58004.16;4912217;29;20793;-66
2023/04/18 09:34:56;;;;;;;19.70;18.07;;;;;;;-142.25;100.00;58004.16;4910450;29;20138;-67
2023/04/18 09:37:23;;;;;;;17.07;15.70;;;;;;;-142.25;100.00;58004.16;4911743;29;20250;-68
2023/04/18 09:39:49;;;;;;;19.33;17.60;;;;;;;-142.25;100.00;58004.16;4910353;28;20050;-68
2023/04/18 09:42:16;;;;;;;18.80;17.37;;;;;;;-142.25;100.00;58004.16;4911680;29;20127;-66
2023/04/18 09:45:04;;;;;;;17.40;16.07;;;;;;;-142.25;100.00;58004.16;4911333;29;20302;-65
2023/04/18 09:47:34;;;;;;;17.90;16.53;;;;;;;-142.25;100.00;58004.16;4911430;29;20404;-66
2023/04/18 09:50:04;;;;;;;15.97;14.77;;;;;;;-142.25;100.00;58004.16;4911059;29;20040;-65
2023/04/18 09:52:35;;;;;;;19.03;17.50;;;;;;;-142.25;100.00;58004.16;4910729;29;20368;-66
2023/04/18 09:55:09;;;;;;;19.13;17.80;;;;;;;-142.25;100.00;58004.16;4910200;29;20605;-65
2023/04/18 09:57:39;;;;;;;21.30;19.73;;;;;;;-142.25;100.00;58004.16;4913403;29;20433;-68
2023/04/18 10:00:28;;;;;;;21.63;20.10;;;;;;;-142.25;100.00;58004.16;4914128;29;20807;-67
2023/04/18 10:03:01;;;;;;;17.67;16.40;;;;;;;-142.25;100.00;58004.16;4914344;29;20509;-67
2023/04/18 10:05:32;;;;;;;19.80;18.37;;;;;;;-142.25;100.00;58004.16;4914312;29;20504;-67
2023/04/18 10:07:58;;;;;;;18.83;17.50;;;;;;;-142.25;100.00;58004.16;4913154;29;20260;-67
2023/04/18 10:10:24;;;;;;;19.27;17.90;;;;;;;-142.25;100.00;58004.16;4914632;28;20182;-65
2023/04/18 10:12:53;;;;;;;22.70;21.17;;;;;;;-142.25;100.00;58004.16;4912986;29;20090;-69
2023/04/18 10:15:21;;;;;;;22.10;20.60;;;;;;;-142.25;100.00;58004.16;4912862;29;20093;-68
2023/04/18 10:17:53;;;;;;;23.90;22.30;;;;;;;-142.25;100.00;58004.16;4914886;28;20035;-60
2023/04/18 10:20:22;;;;;;;21.50;20.07;;;;;;;-142.25;100.00;58004.16;4915017;29;20036;-69
2023/04/18 10:22:48;;;;;;;25.90;24.03;;;;;;;-142.25;100.00;58004.16;4914125;29;20461;-69
2023/04/18 10:25:32;;;;;;;24.43;22.67;;;;;;;-142.25;100.00;58004.16;4914954;29;20115;-69
2023/04/18 10:28:00;;;;;;;25.97;24.30;;;;;;;-142.25;100.00;58004.16;4913068;29;20111;-68
2023/04/18 10:31:04;;;;;;;30.93;29.07;;;;;;;-142.25;100.00;58004.16;4913212;29;20044;-69
2023/04/18 10:33:34;;;;;;;29.97;27.80;;;;;;;-142.25;100.00;58004.16;4911709;29;20112;-68
2023/04/18 10:36:09;;;;;;;30.00;28.07;;;;;;;-142.25;100.00;58004.16;4913820;29;20317;-72
2023/04/18 10:38:46;;;;;;;27.10;25.13;;;;;;;-142.25;100.00;58004.16;4912913;29;20071;-69
2023/04/18 10:41:12;;;;;;;26.83;25.03;;;;;;;-142.25;100.00;58004.16;4912607;29;20043;-66
2023/04/18 10:44:05;;;;;;;28.17;26.23;;;;;;;-142.25;100.00;58004.16;4913521;29;20436;-68
2023/04/18 10:46:35;;;;;;;26.47;24.83;;;;;;;-142.25;100.00;58004.16;4913202;29;20039;-68
2023/04/18 10:49:13;;;;;;;27.77;25.83;;;;;;;-142.25;100.00;58004.16;4914024;29;20054;-67
2023/04/18 10:51:39;;;;;;;37.93;35.83;;;;;;;-142.25;100.00;58004.16;4914693;29;20056;-61
2023/04/18 10:54:08;;;;;;;27.90;25.97;;;;;;;-142.25;100.00;58004.16;4913954;29;20058;-67
2023/04/18 10:56:34;;;;;;;32.50;30.43;;;;;;;-142.25;100.00;58004.16;4914383;29;20134;-68